Weather reports worldwide

Advertisment
Mont Aigoual, France (7560): temperature & dewpoint: 12.01.2018 07:00:00 - 18.01.2018 07:00:00 (CET)Mont Aigoual, France (7560): wind speed & gusts: 12.01.2018 07:00:00 - 18.01.2018 07:00:00 (CET)Mont Aigoual, France (7560): wind direction: 12.01.2018 07:00:00 - 18.01.2018 07:00:00 (CET)Mont Aigoual, France (7560): visibility: 12.01.2018 07:00:00 - 18.01.2018 07:00:00 (CET)Mont Aigoual, France (7560): precipitation: 12.01.2018 07:00:00 - 18.01.2018 07:00:00 (CET)
Date & Time tt [°C] td [°C] ff [km/h] ff [kn] fx [km/h] fx [kn] dd vv [km] rr [mm]
18.01.2018 07:00:00 - - - - - - - - -
18.01.2018 06:00:00 -2,6 -2,9 86 47 113 61 WNW 0,1 0,0
18.01.2018 05:00:00 -2,6 -2,9 74 40 103 55 NW 0,1 0,0
18.01.2018 04:00:00 -2,7 -3,0 64 35 102 55 WNW 0,1 0,0
18.01.2018 03:00:00 -2,8 -3,1 64 35 100 54 NW 0,1 0,2
18.01.2018 02:00:00 -3,0 -3,3 61 33 96 52 NW 0,1 0,0
18.01.2018 01:00:00 -3,3 -3,6 68 37 109 59 NW 0,1 0,0
18.01.2018 00:00:00 -3,4 -3,7 68 37 100 54 NW 0,1 0,0
17.01.2018 23:00:00 -3,3 -3,6 61 33 105 57 NNW 0,1 0,0
17.01.2018 22:00:00 -3,4 -3,7 65 35 98 53 NNW 0,1 0,0
17.01.2018 21:00:00 -3,4 -3,7 61 33 125 67 NNW 0,1 0,0
17.01.2018 20:00:00 -3,6 -4,0 76 41 124 67 NNW 0,1 0,0
17.01.2018 19:00:00 -3,5 -3,8 76 41 136 74 NNW 0,1 0,0
17.01.2018 18:00:00 -3,6 -4,0 82 45 126 68 NNW 0,1 0,2
17.01.2018 17:00:00 -4,0 -4,4 84 45 117 63 NNW 0,4 0,0
17.01.2018 16:00:00 -3,9 -4,3 79 42 129 69 NNW 0,4 0,0
17.01.2018 15:00:00 -3,6 -4,0 74 40 113 61 NNW 0,3 0,6
17.01.2018 14:00:00 -3,7 -4,1 67 36 113 61 NNW 0,1 1,2
17.01.2018 13:00:00 -4,0 -4,4 59 32 112 60 NNW 1,3 0,0
17.01.2018 12:00:00 -3,8 -4,2 77 42 121 65 NW 0,1 0,2
17.01.2018 11:00:00 -4,0 -4,4 60 33 114 61 NNW 0,1 0,2
17.01.2018 10:00:00 -3,7 -4,1 63 34 121 65 NNW 0,1 0,2
17.01.2018 09:00:00 -3,3 -3,6 47 25 109 59 NNW 0,2 0,4
17.01.2018 08:00:00 -3,4 -3,7 60 33 119 64 NNW 0,1 0,2
17.01.2018 07:00:00 -2,9 -3,2 64 35 117 63 NW 0,1 0,8
17.01.2018 06:00:00 -1,8 -1,9 69 38 131 71 NW 0,1 0,2
17.01.2018 05:00:00 -1,2 -1,2 70 38 141 76 NW 0,1 0,8
17.01.2018 04:00:00 -0,6 -0,6 98 53 151 82 WNW 0,4 0,4
17.01.2018 03:00:00 -0,1 -0,1 91 49 141 76 NW 0,1 0,6
17.01.2018 02:00:00 0,5 0,5 98 53 148 80 NW 0,2 0,4
17.01.2018 01:00:00 1,7 1,7 83 45 119 65 NW 0,2 1,2
17.01.2018 00:00:00 2,0 2,0 94 51 144 78 WNW 0,1 0,2
16.01.2018 23:00:00 1,9 1,9 111 60 159 86 WNW 0,1 0,2
16.01.2018 22:00:00 2,5 2,5 85 46 158 85 WNW 0,2 0,8
16.01.2018 21:00:00 2,3 2,3 86 46 141 76 WNW 0,2 0,0
16.01.2018 20:00:00 2,4 2,4 95 52 135 73 WNW 0,1 0,4
16.01.2018 19:00:00 2,4 2,4 95 51 149 81 WNW 0,1 0,2
16.01.2018 18:00:00 2,7 2,7 86 46 132 71 WNW 0,2 0,6
16.01.2018 17:00:00 2,6 2,6 86 47 150 81 WNW 0,2 0,2
16.01.2018 16:00:00 2,5 2,5 89 48 135 73 WNW 0,2 0,2
16.01.2018 15:00:00 2,3 2,3 80 43 133 72 WNW 0,2 0,2
16.01.2018 14:00:00 2,0 2,0 97 53 145 79 WNW 0,2 0,2
16.01.2018 13:00:00 1,9 1,9 78 42 123 67 WNW 0,1 0,0
16.01.2018 12:00:00 1,8 1,8 80 43 127 69 WNW 0,1 0,2
16.01.2018 11:00:00 1,5 1,5 82 44 137 74 WNW 0,1 0,2
16.01.2018 10:00:00 1,7 1,7 80 43 111 60 WNW 0,2 0,8
16.01.2018 09:00:00 1,7 1,7 72 39 115 62 WNW 0,2 0,8
16.01.2018 08:00:00 1,8 1,8 72 39 128 69 WNW 0,2 0,4
16.01.2018 07:00:00 1,5 1,5 93 50 130 70 WNW 0,1 0,4
16.01.2018 06:00:00 1,2 1,2 79 42 121 66 WNW 0,2 0,2
16.01.2018 05:00:00 0,9 0,9 94 51 129 70 WNW 0,1 0,2
16.01.2018 04:00:00 0,6 0,6 66 36 111 60 WNW 0,1 0,2
16.01.2018 03:00:00 0,0 0,0 59 32 115 62 WNW 0,1 0,2
16.01.2018 02:00:00 -0,1 -0,1 45 24 112 61 W 0,1 0,2
16.01.2018 01:00:00 -0,9 -0,9 40 22 92 50 W 0,1 0,2
16.01.2018 00:00:00 -1,5 -1,6 28 15 82 45 WSW 0,1 0,4
15.01.2018 23:00:00 -1,7 -1,8 31 17 86 47 SW 0,1 0,6
15.01.2018 22:00:00 -2,0 -2,1 39 21 83 45 WSW 0,2 0,4
15.01.2018 21:00:00 -1,9 -2,0 37 20 80 43 WSW 0,5 0,0
15.01.2018 20:00:00 -1,7 -1,8 32 17 77 42 WSW 0,1 0,0
15.01.2018 19:00:00 -1,6 -1,7 30 16 66 36 WSW 0,1 0,0
15.01.2018 18:00:00 -1,8 -1,9 24 13 57 31 W 0,1 0,0
15.01.2018 17:00:00 -1,8 -1,9 23 12 59 32 W 0,1 0,0
15.01.2018 16:00:00 -1,6 -1,7 22 12 59 32 SW 0,1 0,0
15.01.2018 15:00:00 -1,9 -2,0 24 13 47 26 WSW 0,1 0,0
15.01.2018 14:00:00 -1,3 -1,4 19 10 45 25 SW 0,1 0,4
15.01.2018 13:00:00 -1,3 -1,4 22 12 45 25 SSW 0,1 0,4
15.01.2018 12:00:00 -1,4 -1,5 21 12 39 21 SW 0,1 0,0
15.01.2018 11:00:00 -1,6 -1,7 19 11 47 26 WSW 0,1 0,2
15.01.2018 10:00:00 -1,5 -1,6 29 16 43 23 WSW 0,2 0,0
15.01.2018 09:00:00 -1,5 -1,6 21 11 32 18 SW 0,2 0,0
15.01.2018 08:00:00 -1,4 -1,5 16 9 31 17 SW 0,1 0,0
15.01.2018 07:00:00 -1,4 -1,5 17 9 30 16 SSW 0,1 0,0
15.01.2018 06:00:00 -1,5 -1,6 12 6 25 13 SSW 0,4 0,0
15.01.2018 05:00:00 -1,6 -1,7 14 8 31 17 SSW 0,1 0,0
15.01.2018 04:00:00 -1,9 -2,0 21 11 30 16 S 0,1 0,0
15.01.2018 03:00:00 -1,7 -1,8 22 12 33 18 S 0,1 0,0
15.01.2018 02:00:00 -1,4 -1,5 16 9 27 15 SSE 0,1 0,0
15.01.2018 01:00:00 -1,3 -1,4 10 5 24 13 ESE - 0,0
15.01.2018 00:00:00 -1,3 -1,3 14 8 34 18 SSE - 0,2
14.01.2018 23:00:00 -1,3 -1,3 24 13 37 20 SSE - 0,0
14.01.2018 22:00:00 -1,3 -1,3 11 6 30 16 SE - 0,0
14.01.2018 21:00:00 -1,4 -1,5 20 11 37 20 SSE 0,1 0,4
14.01.2018 20:00:00 -1,5 -1,6 14 8 34 18 SE 0,1 0,9
14.01.2018 19:00:00 -1,5 -1,6 16 9 48 26 SE - 0,4
14.01.2018 18:00:00 -1,5 -1,6 22 12 49 26 SSE 0,1 0,6
14.01.2018 17:00:00 -1,4 -1,5 29 16 45 24 SSE 0,1 1,2
14.01.2018 16:00:00 -1,6 -1,7 26 14 56 31 S - 1,8
14.01.2018 15:00:00 -1,8 -1,9 28 15 86 46 SSE 0,1 2,2
14.01.2018 14:00:00 -2,1 -2,2 17 9 69 37 S 0,1 2,0
14.01.2018 13:00:00 -2,3 -2,4 22 12 53 29 SSE 0,1 1,2
14.01.2018 12:00:00 -2,4 -2,5 27 14 62 33 SE 0,1 2,2
14.01.2018 11:00:00 -2,6 -2,9 21 12 65 35 SSE 0,1 4,5
14.01.2018 10:00:00 -2,6 -2,9 37 20 86 47 S 0,1 5,2
14.01.2018 09:00:00 -2,5 -2,8 39 21 88 47 S 0,1 5,6
14.01.2018 08:00:00 -2,5 -2,8 34 18 66 36 S 0,1 4,7
14.01.2018 07:00:00 -2,0 -2,1 41 22 72 39 SSE 0,1 6,2
14.01.2018 06:00:00 -1,9 -2,0 46 25 72 39 S 0,1 6,2
14.01.2018 05:00:00 -1,9 -2,0 48 26 80 43 SSE 0,1 6,7
14.01.2018 04:00:00 -1,4 -1,5 47 26 85 46 S 0,1 6,0
14.01.2018 03:00:00 -1,2 -1,2 50 27 95 51 S 0,1 4,3
14.01.2018 02:00:00 -1,3 -1,3 61 33 91 49 S 0,1 4,8
14.01.2018 01:00:00 -0,9 -0,9 56 30 99 54 S 0,1 3,6
14.01.2018 00:00:00 -0,7 -0,7 60 32 100 54 S 0,1 4,0
13.01.2018 23:00:00 -0,6 -0,6 60 32 101 54 S 0,1 3,9
13.01.2018 22:00:00 -0,7 -0,7 71 38 112 60 S 0,1 2,8
13.01.2018 21:00:00 -0,7 -0,7 69 37 105 57 S 0,1 2,2
13.01.2018 20:00:00 -0,8 -0,8 75 41 111 60 S 0,1 0,6
13.01.2018 19:00:00 -0,9 -0,9 70 38 113 61 S 0,1 0,6
13.01.2018 18:00:00 -1,1 -1,1 69 38 116 63 S - 0,0
13.01.2018 17:00:00 -1,2 -1,2 68 37 112 61 S 0,1 0,0
13.01.2018 16:00:00 -2,0 -2,1 76 41 101 55 S 0,1 0,0
13.01.2018 15:00:00 -2,2 -2,6 64 34 96 52 S 0,5 0,0
13.01.2018 14:00:00 -1,7 -3,1 64 34 87 47 S 14 0,0
13.01.2018 13:00:00 -1,7 -2,5 62 33 84 45 S 13 0,0
13.01.2018 12:00:00 -1,7 -2,4 52 28 73 39 S 13 0,0
13.01.2018 11:00:00 -2,2 -2,6 46 25 67 36 S 9 0,0
13.01.2018 10:00:00 -2,5 -2,9 42 23 57 31 S 11 0,0
13.01.2018 09:00:00 -3,1 -4,1 50 27 58 32 SSE 14 0,0
13.01.2018 08:00:00 -3,5 -4,6 48 26 64 34 SSE 15 0,0
13.01.2018 07:00:00 -3,7 -4,4 38 21 45 24 SSE 13 0,0
13.01.2018 06:00:00 -3,9 -4,6 28 15 36 19 SSE 13 0,0
13.01.2018 05:00:00 -3,9 -4,6 26 14 29 16 SSE 14 0,0
13.01.2018 04:00:00 -3,7 -4,2 30 16 35 19 S 14 0,0
13.01.2018 03:00:00 -3,6 -4,1 22 12 33 18 S 14 0,0
13.01.2018 02:00:00 -3,6 -4,1 21 11 28 15 S 14 0,0
13.01.2018 01:00:00 -3,6 -4,3 17 9 25 13 S 14 0,0
13.01.2018 00:00:00 -3,7 -4,2 14 8 16 9 S 14 0,0
12.01.2018 23:00:00 -4,1 -4,6 18 10 36 19 WNW 0,1 0,0
12.01.2018 22:00:00 -3,7 -4,1 23 12 39 21 NNW 2,5 0,0
12.01.2018 21:00:00 -3,7 -4,1 28 15 41 22 NNW 0,1 0,0
12.01.2018 20:00:00 -3,6 -4,0 35 19 49 26 NW 0,2 0,0
12.01.2018 19:00:00 -3,5 -4,0 31 17 45 25 N 13 0,0
12.01.2018 18:00:00 -3,2 -3,7 30 16 56 31 N 12 0,0
12.01.2018 17:00:00 -2,6 -3,0 47 25 69 37 N 13 0,0
12.01.2018 16:00:00 -2,0 -2,3 53 28 74 40 N 14 0,0
12.01.2018 15:00:00 -1,8 -1,9 58 31 81 44 N 3,6 0,0
12.01.2018 14:00:00 -1,9 -2,2 57 31 81 44 N 0,3 0,2
12.01.2018 13:00:00 -2,0 -2,1 60 33 106 58 N 6 0,0
12.01.2018 12:00:00 -2,5 -2,8 68 37 92 50 N 0,2 0,0
12.01.2018 11:00:00 -2,7 -3,0 69 37 91 49 N 0,5 0,0
12.01.2018 10:00:00 -3,0 -3,3 65 35 111 60 N 0,3 0,0
12.01.2018 09:00:00 -3,5 -3,9 65 35 103 55 NNW 0,2 0,0
12.01.2018 08:00:00 -3,6 -4,0 70 38 91 49 NNW 0,2 0,0
12.01.2018 07:00:00 -3,5 -3,8 64 35 109 59 N 0,1 0,0

tt = temperature
td = dewpoint
ff = wind speed
fx = gusts
dd = wind direction
vv = visibility
rr = precipitation

Next stations